KJ4RUS Largo FL US current weather conditions

sailwx.info

Wind from 128 at 6 knots gusting 10

Air temperature 26.7° C
Dewpoint 22.3° C

Last reported at 2019-Jul-21 23:00 UTC.
Time now 2019-Jul-21 23:23 UTC

Location: N 27°54' W 082°49'.
View on Google Maps.

See reports from other nearby stations

  
Tides and Currents Weather Stations Pressure Air Temp Water Temp Dewpoint Dewpoint Depression Visibility Wind Speed Wind Dir Waves Ship Positions
date/time (UTC)wind fromknots sea level pressurealtimeterstation pressurevisibilityair tempwater tempwave heightnotes
2019-Jul-21 23:00 128 6 gusting 10 26.7
2019-Jul-21 22:45 119 0 gusting 6 26.1
2019-Jul-21 22:30 153 4 gusting 6 25.6
2019-Jul-21 22:15 142 6 gusting 10 25.0
2019-Jul-21 22:00 078 6 gusting 11 25.6
2019-Jul-21 21:45 080 5 gusting 13 26.7
2019-Jul-21 21:30 109 3 gusting 11 30.0
2019-Jul-21 21:15 275 1 gusting 6 30.6
2019-Jul-21 21:00 240 2 gusting 6 31.1
2019-Jul-21 20:45 277 2 gusting 7 31.1
2019-Jul-21 20:32 294 2 gusting 7 30.6
2019-Jul-21 20:16 323 3 gusting 8 30.0
2019-Jul-21 20:02 259 3 gusting 9 29.4
2019-Jul-21 19:46 309 2 gusting 6 28.9
2019-Jul-21 19:32 317 3 gusting 7 28.3
2019-Jul-21 19:16 100 27.2
2019-Jul-21 19:01 100 26.7
2019-Jul-21 18:46 115 26.1
2019-Jul-21 18:31 077 3 gusting 9 25.6
2019-Jul-21 18:17 074 4 gusting 8 25.6
2019-Jul-21 18:02 017 4 gusting 13 25.6
2019-Jul-21 17:46 327 1 gusting 9 26.7
2019-Jul-21 17:31 348 1 gusting 5 28.3
2019-Jul-21 17:16 325 27.2
2019-Jul-21 17:01 284 26.7
2019-Jul-21 16:46 193 26.1
2019-Jul-21 16:33 058 5 gusting 10 26.7
2019-Jul-21 16:16 171 2 gusting 6 30.0
2019-Jul-21 16:01 131 0 gusting 6 30.0
2019-Jul-21 15:46 186 3 gusting 10 30.6
2019-Jul-21 15:31 140 3 gusting 7 30.6
2019-Jul-21 15:16 059 3 gusting 8 30.6
2019-Jul-21 15:01 124 5 gusting 8 30.0
2019-Jul-21 14:46 132 2 gusting 8 29.4
2019-Jul-21 14:31 106 4 gusting 7 29.4
2019-Jul-21 14:16 098 6 gusting 8 28.9
2019-Jul-21 14:00 078 2 gusting 6 28.9
2019-Jul-21 13:45 148 2 gusting 6 28.3
2019-Jul-21 13:30 116 3 gusting 7 27.8
2019-Jul-21 13:15 107 3 gusting 6 27.8
2019-Jul-21 13:00 124 4 gusting 8 27.2
2019-Jul-21 12:47 107 2 gusting 8 26.7
2019-Jul-21 12:32 132 4 gusting 7 26.7
2019-Jul-21 12:16 080 1 gusting 6 26.1
2019-Jul-21 12:01 098 1 gusting 6 25.6
2019-Jul-21 11:46 109 1 gusting 4 25.0
2019-Jul-21 11:31 093 0 gusting 6 24.4
2019-Jul-21 11:15 124 1 gusting 5 24.4
2019-Jul-21 11:01 092 24.4
2019-Jul-21 10:45 123 3 gusting 6 24.4
2019-Jul-21 10:30 098 0 gusting 3 24.4
2019-Jul-21 10:15 082 24.4
2019-Jul-21 10:01 085 24.4
2019-Jul-21 09:46 098 0 gusting 3 24.4
2019-Jul-21 09:30 096 0 gusting 6 24.4
2019-Jul-21 09:15 100 1 gusting 5 24.4
2019-Jul-21 09:02 100 0 gusting 3 24.4
2019-Jul-21 08:45 103 24.4
2019-Jul-21 08:30 090 24.4
2019-Jul-21 08:15 104 0 gusting 4 24.4
2019-Jul-21 08:00 071 24.4
2019-Jul-21 07:45 071 24.4
2019-Jul-21 07:30 069 24.4
2019-Jul-21 07:15 117 1 gusting 6 24.4
2019-Jul-21 07:01 128 2 gusting 6 24.4
2019-Jul-21 06:45 086 24.4
2019-Jul-21 06:31 084 24.4
2019-Jul-21 06:15 117 24.4
2019-Jul-21 06:00 080 24.4
2019-Jul-21 05:45 093 24.4
2019-Jul-21 05:30 093 24.4
2019-Jul-21 05:15 093 24.4
2019-Jul-21 05:00 107 0 gusting 3 24.4
2019-Jul-21 04:45 087 24.4
2019-Jul-21 04:30 090 24.4
2019-Jul-21 04:15 114 0 gusting 5 24.4
2019-Jul-21 04:01 120 3 gusting 7 24.4
2019-Jul-21 03:47 126 1 gusting 6 24.4
2019-Jul-21 03:32 115 1 gusting 3 24.4
2019-Jul-21 03:16 088 0 gusting 6 24.4
2019-Jul-21 03:02 063 2 gusting 5 23.9
2019-Jul-21 02:47 118 2 gusting 6 23.9
2019-Jul-21 02:31 121 4 gusting 8 23.9
2019-Jul-21 02:16 111 1 gusting 6 23.9
2019-Jul-21 02:03 096 23.9
2019-Jul-21 01:48 090 23.9
2019-Jul-21 01:31 090 23.3
2019-Jul-21 01:16 108 23.9
2019-Jul-21 01:01 119 0 gusting 5 23.9
2019-Jul-21 00:46 052 1 gusting 6 23.9
2019-Jul-21 00:32 026 2 gusting 9 23.9
2019-Jul-21 00:16 067 1 gusting 7 23.9
2019-Jul-21 00:01 051 1 gusting 3 23.3
2019-Jul-20 23:46 098 0 gusting 5 22.8
2019-Jul-20 23:34 102 1 gusting 6 22.8
2019-Jul-20 23:16 137 22.8
2019-Jul-20 23:01 176 0 gusting 8 23.3
2019-Jul-20 22:46 162 8 gusting 17 24.4
2019-Jul-20 22:31 173 13 gusting 23 25.6
2019-Jul-20 22:16 132 1 gusting 8 30.6
2019-Jul-20 22:01 157 1 gusting 5 30.6
2019-Jul-20 21:46 108 4 gusting 9 31.1
2019-Jul-20 21:31 231 5 gusting 10 32.2
2019-Jul-20 21:16 271 4 gusting 8 32.2
2019-Jul-20 21:01 281 5 gusting 10 32.2
2019-Jul-20 20:45 292 2 gusting 7 32.2
2019-Jul-20 20:31 279 2 gusting 6 32.2
2019-Jul-20 20:15 296 4 gusting 9 31.7
2019-Jul-20 20:01 263 6 gusting 11 31.7
2019-Jul-20 19:45 234 4 gusting 10 32.8
2019-Jul-20 19:31 232 4 gusting 11 32.2
2019-Jul-20 19:16 301 3 gusting 12 32.2
2019-Jul-20 19:00 241 4 gusting 10 32.2
2019-Jul-20 18:45 192 2 gusting 9 32.2
2019-Jul-20 18:31 195 5 gusting 8 32.2
2019-Jul-20 18:16 184 5 gusting 10 32.2
2019-Jul-20 18:00 186 4 gusting 9 32.8
2019-Jul-20 17:45 250 1 gusting 7 32.2
2019-Jul-20 17:30 180 0 gusting 9 32.2
2019-Jul-20 17:15 184 2 gusting 6 32.2
2019-Jul-20 17:00 202 4 gusting 7 31.7
2019-Jul-20 16:45 194 3 gusting 7 31.1
2019-Jul-20 16:30 171 4 gusting 9 31.1
2019-Jul-20 16:15 154 2 gusting 12 31.7
2019-Jul-20 16:00 146 1 gusting 10 31.1
2019-Jul-20 15:45 145 4 gusting 9 30.6
2019-Jul-20 15:32 186 5 gusting 8 30.6
2019-Jul-20 15:17 164 3 gusting 8 31.1
2019-Jul-20 15:02 178 5 gusting 8 30.6
2019-Jul-20 14:47 139 4 gusting 10 30.0
2019-Jul-20 14:31 128 2 gusting 11 29.4
2019-Jul-20 14:16 161 6 gusting 11 29.4
2019-Jul-20 14:01 139 5 gusting 9 28.3
2019-Jul-20 13:46 157 6 gusting 9 27.8
2019-Jul-20 13:30 131 6 gusting 9 27.2
2019-Jul-20 13:16 121 4 gusting 8 27.2
2019-Jul-20 13:00 119 2 gusting 8 26.7
2019-Jul-20 12:46 121 4 gusting 9 26.7
2019-Jul-20 12:30 115 4 gusting 7 26.7
2019-Jul-20 12:15 129 2 gusting 6 26.1
2019-Jul-20 12:00 115 1 gusting 6 26.1
2019-Jul-20 11:45 119 0 gusting 5 25.6
2019-Jul-20 11:30 123 1 gusting 3 25.0
2019-Jul-20 11:15 106 0 gusting 5 25.0
2019-Jul-20 11:00 129 1 gusting 3 24.4
2019-Jul-20 10:46 099 24.4
2019-Jul-20 10:32 096 24.4
2019-Jul-20 10:17 112 24.4
2019-Jul-20 10:01 075 24.4
2019-Jul-20 09:46 105 25.0
2019-Jul-20 09:31 071 25.0
2019-Jul-20 09:16 102 25.0
2019-Jul-20 09:01 117 2 gusting 5 25.0
2019-Jul-20 08:47 119 0 gusting 6 25.0
2019-Jul-20 08:31 118 25.0
2019-Jul-20 08:17 117 25.0
2019-Jul-20 08:01 092 25.0
2019-Jul-20 07:46 112 25.0
2019-Jul-20 07:32 098 25.0
2019-Jul-20 07:16 107 25.0
2019-Jul-20 07:02 116 25.0
2019-Jul-20 06:47 103 25.0
2019-Jul-20 06:31 067 24.4
2019-Jul-20 06:16 107 24.4
2019-Jul-20 06:01 089 1 gusting 4 23.9
2019-Jul-20 05:47 055 0 gusting 2 23.9
2019-Jul-20 05:30 071 23.9
2019-Jul-20 05:15 071 23.9
2019-Jul-20 05:00 094 0 gusting 5 23.3
2019-Jul-20 04:45 063 2 gusting 5 23.3
2019-Jul-20 04:31 140 2 gusting 7 23.3
2019-Jul-20 04:15 115 23.9
2019-Jul-20 04:00 149 23.3
2019-Jul-20 03:45 129 23.9
2019-Jul-20 03:30 129 23.9
2019-Jul-20 03:15 105 23.9
2019-Jul-20 03:00 121 1 gusting 6 23.9
2019-Jul-20 02:45 119 23.9
2019-Jul-20 02:30 119 23.3
2019-Jul-20 02:15 005 23.3
2019-Jul-20 02:00 058 2 gusting 7 23.3
2019-Jul-20 01:45 034 2 gusting 10 23.3
2019-Jul-20 01:30 065 2 gusting 23 23.3
2019-Jul-20 01:15 071 7 gusting 12 25.0
2019-Jul-20 01:00 042 3 gusting 7 25.0
2019-Jul-20 00:45 148 6 gusting 13 26.1
2019-Jul-20 00:30 158 8 gusting 15 27.8
2019-Jul-20 00:15 303 28.9
2019-Jul-20 00:00 303 28.9
2019-Jul-19 23:45 303 28.9
2019-Jul-19 23:30 309 28.9
2019-Jul-19 23:15 315 28.9
2019-Jul-19 23:00 311 0 gusting 5 28.9